Time;durP1;ratioP1;P1;durP2;ratioP2;P2;SDS_P1;SDS_P2;PMS_P1;PMS_P2;Temp;Humidity;BMP_temperature;BMP_pressure;BME280_temperature;BME280_humidity;BME280_pressure;Samples;Min_cycle;Max_cycle;Signal;HPM_P1;HPM_P2
2022/10/24 00:01:22;;;;;;;8.93;2.53;;;16.50;99.90;;;;;;5032295;28;20437;-70
2022/10/24 00:03:50;;;;;;;10.55;2.53;;;16.60;99.90;;;;;;5037258;28;20060;-70
2022/10/24 00:06:18;;;;;;;7.25;2.20;;;16.60;99.90;;;;;;5082893;28;20417;-71
2022/10/24 00:08:46;;;;;;;7.15;2.33;;;16.50;99.90;;;;;;5043599;28;20464;-70
2022/10/24 00:11:24;;;;;;;8.00;2.35;;;16.50;99.90;;;;;;5037714;28;20042;-70
2022/10/24 00:13:52;;;;;;;10.48;2.08;;;16.50;99.90;;;;;;5041452;28;20048;-72
2022/10/24 00:16:20;;;;;;;6.18;2.33;;;16.50;99.90;;;;;;5042873;28;20416;-70
2022/10/24 00:18:47;;;;;;;8.85;2.20;;;16.60;99.90;;;;;;5049694;28;20037;-72
2022/10/24 00:21:15;;;;;;;12.77;2.40;;;16.50;99.90;;;;;;5043312;28;20055;-69
2022/10/24 00:23:42;;;;;;;10.02;2.15;;;16.50;99.90;;;;;;5044499;28;20080;-72
2022/10/24 00:26:11;;;;;;;7.38;2.13;;;16.50;99.90;;;;;;5046737;28;20477;-70
2022/10/24 00:28:40;;;;;;;6.20;1.70;;;16.50;99.90;;;;;;5044375;28;20152;-72
2022/10/24 00:31:11;;;;;;;7.00;2.67;;;16.50;99.90;;;;;;5049343;28;20388;-73
2022/10/24 00:33:38;;;;;;;8.57;2.10;;;16.40;99.90;;;;;;5040870;28;20115;-73
2022/10/24 00:36:10;;;;;;;8.88;2.67;;;16.50;99.90;;;;;;5044114;28;20616;-69
2022/10/24 00:38:38;;;;;;;9.50;2.17;;;16.40;99.90;;;;;;5048474;28;20037;-74
2022/10/24 00:41:06;;;;;;;7.70;1.83;;;16.40;99.90;;;;;;5049710;28;20071;-75
2022/10/24 00:43:34;;;;;;;5.00;1.80;;;16.40;99.90;;;;;;5048426;28;20053;-74
2022/10/24 00:46:02;;;;;;;8.57;2.03;;;16.40;99.90;;;;;;5052394;28;20479;-74
2022/10/24 00:48:44;;;;;;;8.27;2.00;;;16.40;99.90;;;;;;5040463;28;20490;-73
2022/10/24 00:51:26;;;;;;;5.45;1.83;;;16.30;99.90;;;;;;5046872;28;20037;-74
2022/10/24 00:54:00;;;;;;;5.68;2.00;;;16.30;99.90;;;;;;5046461;28;20040;-71
2022/10/24 00:56:33;;;;;;;6.95;2.10;;;16.20;99.90;;;;;;5046216;28;20039;-72
2022/10/24 00:59:03;;;;;;;7.57;1.92;;;16.20;99.90;;;;;;5048286;28;20052;-71
2022/10/24 01:01:33;;;;;;;10.65;2.20;;;16.10;99.90;;;;;;5048378;28;20487;-70
2022/10/24 01:04:00;;;;;;;7.88;2.40;;;16.00;99.90;;;;;;5040082;28;20362;-73
2022/10/24 01:07:01;;;;;;;8.93;2.55;;;16.00;99.90;;;;;;5045424;28;20507;-70
2022/10/24 01:10:07;;;;;;;7.10;2.10;;;15.90;99.90;;;;;;5020517;28;20512;-70
2022/10/24 01:13:09;;;;;;;7.28;2.10;;;15.80;99.90;;;;;;5054557;28;20165;-70
2022/10/24 01:15:58;;;;;;;8.43;2.10;;;15.90;99.90;;;;;;4967859;28;20054;-70
2022/10/24 01:18:38;;;;;;;8.60;2.13;;;15.90;99.90;;;;;;4998975;28;20057;-70
2022/10/24 01:21:23;;;;;;;7.47;2.35;;;16.00;99.90;;;;;;4985208;28;20050;-70
2022/10/24 01:24:23;;;;;;;6.28;2.20;;;16.00;99.90;;;;;;5003784;28;20073;-70
2022/10/24 01:27:11;;;;;;;6.35;2.25;;;16.00;99.90;;;;;;5004687;28;20058;-70
2022/10/24 01:29:49;;;;;;;6.78;2.53;;;15.90;99.90;;;;;;5005258;28;20603;-70
2022/10/24 01:32:34;;;;;;;8.82;2.13;;;15.90;99.90;;;;;;5003369;28;20492;-70
2022/10/24 01:35:24;;;;;;;9.68;2.03;;;15.90;99.90;;;;;;4988433;28;20042;-70
2022/10/24 01:38:00;;;;;;;8.77;1.90;;;15.90;99.90;;;;;;4985864;28;20120;-70
2022/10/24 01:40:33;;;;;;;7.03;1.90;;;15.80;99.90;;;;;;5004980;28;20500;-70
2022/10/24 01:43:12;;;;;;;8.60;1.77;;;15.80;99.90;;;;;;5004789;28;20049;-71
2022/10/24 01:45:43;;;;;;;9.68;2.33;;;15.80;99.90;;;;;;5013001;28;20065;-70
2022/10/24 01:48:16;;;;;;;7.80;1.88;;;15.70;99.90;;;;;;5002638;28;20548;-71
2022/10/24 01:50:48;;;;;;;6.93;1.90;;;15.70;99.90;;;;;;5036496;28;20085;-70
2022/10/24 01:53:15;;;;;;;6.82;2.10;;;15.70;99.90;;;;;;5040756;28;20075;-70
2022/10/24 01:55:47;;;;;;;9.98;2.28;;;15.70;99.90;;;;;;5042859;28;20158;-71
2022/10/24 01:58:14;;;;;;;5.93;1.75;;;15.60;99.90;;;;;;5045415;28;20514;-70
2022/10/24 02:00:43;;;;;;;8.10;2.13;;;15.70;99.90;;;;;;5027796;28;20037;-70
2022/10/24 02:03:21;;;;;;;7.20;1.95;;;15.60;99.90;;;;;;5036825;28;20133;-70
2022/10/24 02:05:57;;;;;;;9.13;2.17;;;15.70;99.90;;;;;;5047875;28;20115;-70
2022/10/24 02:08:29;;;;;;;9.68;2.13;;;15.60;99.90;;;;;;5030771;28;20479;-71
2022/10/24 02:11:01;;;;;;;6.22;2.30;;;15.60;99.90;;;;;;5036555;28;20531;-71
2022/10/24 02:13:31;;;;;;;;;;;15.70;99.90;;;;;;5046481;28;20079;-70
2022/10/24 02:16:01;;;;;;;6.82;2.22;;;15.70;99.90;;;;;;5040013;28;20019;-70
2022/10/24 02:18:29;;;;;;;9.25;2.33;;;15.70;99.90;;;;;;5045229;28;20044;-70
2022/10/24 02:20:56;;;;;;;7.80;1.75;;;15.60;99.90;;;;;;5026034;28;20576;-69
2022/10/24 02:23:31;;;;;;;7.57;1.88;;;15.50;99.90;;;;;;5043684;28;20415;-69
2022/10/24 02:26:01;;;;;;;6.95;2.08;;;15.50;99.90;;;;;;5037319;28;20095;-69
2022/10/24 02:28:36;;;;;;;8.00;1.80;;;15.40;99.90;;;;;;5036764;28;20068;-69
2022/10/24 02:31:11;;;;;;;6.47;1.95;;;15.30;99.90;;;;;;5038535;28;20527;-70
2022/10/24 02:33:39;;;;;;;7.10;2.10;;;15.30;99.90;;;;;;5047902;28;20477;-70
2022/10/24 02:36:12;;;;;;;11.77;3.13;;;15.20;99.90;;;;;;5035213;28;20054;-69
2022/10/24 02:38:42;;;;;;;5.35;2.10;;;15.20;99.90;;;;;;5031240;28;20140;-69
2022/10/24 02:41:15;;;;;;;8.07;2.47;;;15.10;99.90;;;;;;5032805;28;20042;-69
2022/10/24 02:43:44;;;;;;;8.20;2.25;;;15.10;99.90;;;;;;5037771;28;20491;-69
2022/10/24 02:46:13;;;;;;;4.85;1.90;;;15.10;99.90;;;;;;5056214;28;20037;-70
2022/10/24 02:48:46;;;;;;;5.85;1.70;;;15.10;99.90;;;;;;5043766;28;20079;-69
2022/10/24 02:51:16;;;;;;;5.32;1.92;;;15.10;99.90;;;;;;5043602;28;20041;-69
2022/10/24 02:53:45;;;;;;;7.45;2.08;;;15.10;99.90;;;;;;5039714;28;20418;-70
2022/10/24 02:56:12;;;;;;;8.52;2.60;;;15.00;99.90;;;;;;5050123;28;20049;-70
2022/10/24 02:58:40;;;;;;;6.30;1.88;;;15.00;99.90;;;;;;5045091;28;20090;-70
2022/10/24 03:01:07;;;;;;;6.50;1.90;;;15.00;99.90;;;;;;5039051;28;20049;-70
2022/10/24 03:03:35;;;;;;;6.05;1.90;;;15.00;99.90;;;;;;5045688;28;20083;-70
2022/10/24 03:06:02;;;;;;;4.40;2.00;;;14.90;99.90;;;;;;5043608;28;20055;-70
2022/10/24 03:08:30;;;;;;;7.07;2.22;;;14.90;99.90;;;;;;5047714;28;20052;-70
2022/10/24 03:10:57;;;;;;;5.97;2.33;;;14.80;99.90;;;;;;5042146;28;20186;-70
2022/10/24 03:13:24;;;;;;;5.78;2.22;;;14.70;99.90;;;;;;5036528;28;20471;-70
2022/10/24 03:15:52;;;;;;;4.55;1.70;;;14.70;99.90;;;;;;5043194;28;20076;-70
2022/10/24 03:18:19;;;;;;;5.07;2.10;;;14.70;99.90;;;;;;5044640;28;20206;-70
2022/10/24 03:20:46;;;;;;;11.82;2.42;;;14.60;99.90;;;;;;5050627;28;20537;-70
2022/10/24 03:23:15;;;;;;;4.70;2.08;;;14.60;99.90;;;;;;5038633;28;20049;-70
2022/10/24 03:25:42;;;;;;;6.90;2.00;;;14.60;99.90;;;;;;5033819;28;20071;-70
2022/10/24 03:28:10;;;;;;;7.15;2.60;;;14.60;99.90;;;;;;5032079;28;20047;-70
2022/10/24 03:30:37;;;;;;;7.50;2.08;;;14.50;99.90;;;;;;5047185;28;20041;-70
2022/10/24 03:33:04;;;;;;;10.60;2.13;;;14.50;99.90;;;;;;5036940;28;20391;-70
2022/10/24 03:35:31;;;;;;;6.18;1.77;;;14.50;99.90;;;;;;5034789;28;20053;-70
2022/10/24 03:37:59;;;;;;;5.32;1.75;;;14.50;99.90;;;;;;5045426;28;20380;-70
2022/10/24 03:40:26;;;;;;;8.25;2.10;;;14.50;99.90;;;;;;5041206;28;20090;-70
2022/10/24 03:42:53;;;;;;;6.82;2.38;;;14.50;99.90;;;;;;5042361;28;20112;-70
2022/10/24 03:45:21;;;;;;;8.43;2.10;;;14.50;99.90;;;;;;5048839;28;20495;-70
2022/10/24 03:47:48;;;;;;;7.90;2.17;;;14.50;99.90;;;;;;5051068;28;20549;-70
2022/10/24 03:50:16;;;;;;;10.25;2.50;;;14.50;99.90;;;;;;5038223;28;20053;-70
2022/10/24 03:52:43;;;;;;;6.93;2.15;;;14.50;99.90;;;;;;5043342;28;20048;-70
2022/10/24 03:55:12;;;;;;;8.73;2.05;;;14.50;99.90;;;;;;5012774;28;20088;-70
2022/10/24 03:57:39;;;;;;;4.20;2.03;;;14.50;99.90;;;;;;5029583;28;20044;-70
2022/10/24 04:00:07;;;;;;;9.00;2.10;;;14.50;99.90;;;;;;5026812;28;20132;-70
2022/10/24 04:02:37;;;;;;;8.95;2.25;;;14.50;99.90;;;;;;5029110;28;20084;-69
2022/10/24 04:05:09;;;;;;;11.25;2.40;;;14.50;99.90;;;;;;5047657;28;20120;-70
2022/10/24 04:07:36;;;;;;;6.60;2.20;;;14.50;99.90;;;;;;5057855;28;20056;-70
2022/10/24 04:10:05;;;;;;;8.18;1.90;;;14.50;99.90;;;;;;5039752;28;20435;-70
2022/10/24 04:12:32;;;;;;;7.78;2.50;;;14.50;99.90;;;;;;5021786;28;20057;-71
2022/10/24 04:15:00;;;;;;;11.38;2.45;;;14.50;99.90;;;;;;5042491;28;20029;-70
2022/10/24 04:17:31;;;;;;;9.15;2.47;;;14.50;99.90;;;;;;5032529;28;20111;-70
2022/10/24 04:19:58;;;;;;;8.68;2.25;;;14.50;99.90;;;;;;5037376;28;20041;-71
2022/10/24 04:22:25;;;;;;;7.70;2.50;;;14.40;99.90;;;;;;5047340;28;20399;-70
2022/10/24 04:24:53;;;;;;;9.15;2.63;;;14.50;99.90;;;;;;5044761;28;20468;-69
2022/10/24 04:27:20;;;;;;;9.75;2.13;;;14.40;99.90;;;;;;5049904;28;20060;-70
2022/10/24 04:29:47;;;;;;;9.65;2.47;;;14.40;99.90;;;;;;5046704;28;20069;-70
2022/10/24 04:32:15;;;;;;;8.15;2.40;;;14.50;99.90;;;;;;5047827;28;20064;-70
2022/10/24 04:34:42;;;;;;;8.32;2.30;;;14.40;99.90;;;;;;5037443;28;20099;-69
2022/10/24 04:37:09;;;;;;;6.32;2.08;;;14.50;99.90;;;;;;5048392;28;20060;-70
2022/10/24 04:39:37;;;;;;;6.75;2.83;;;14.50;99.90;;;;;;5056527;28;20125;-69
2022/10/24 04:42:04;;;;;;;11.68;2.67;;;14.50;99.90;;;;;;5044524;28;20495;-70
2022/10/24 04:44:31;;;;;;;7.80;2.60;;;14.50;99.90;;;;;;5048789;28;20045;-69
2022/10/24 04:46:58;;;;;;;6.00;2.22;;;14.50;99.90;;;;;;5055902;28;20076;-70
2022/10/24 04:49:26;;;;;;;6.80;2.20;;;14.50;99.90;;;;;;5048167;28;20135;-69
2022/10/24 04:51:53;;;;;;;5.20;2.00;;;14.50;99.90;;;;;;5046853;28;20072;-70
2022/10/24 04:54:20;;;;;;;8.60;2.60;;;14.40;99.90;;;;;;5039834;28;20073;-69
2022/10/24 04:56:48;;;;;;;10.55;2.78;;;14.40;99.90;;;;;;5047853;28;20060;-69
2022/10/24 04:59:15;;;;;;;12.60;2.53;;;14.40;99.90;;;;;;5052062;28;20040;-69
2022/10/24 05:01:42;;;;;;;12.00;2.47;;;14.40;99.90;;;;;;5041678;28;20391;-70
2022/10/24 05:04:11;;;;;;;8.32;2.45;;;14.40;99.90;;;;;;5047686;28;20499;-70
2022/10/24 05:06:38;;;;;;;11.88;3.03;;;14.40;99.90;;;;;;5046590;28;20052;-69
2022/10/24 05:09:11;;;;;;;7.45;2.78;;;14.40;99.90;;;;;;5030961;28;20045;-69
2022/10/24 05:11:38;;;;;;;7.85;2.75;;;14.40;99.90;;;;;;5045070;28;20049;-69
2022/10/24 05:14:06;;;;;;;8.15;3.03;;;14.40;99.90;;;;;;5032837;28;20156;-69
2022/10/24 05:16:33;;;;;;;13.90;2.90;;;14.30;99.90;;;;;;5066230;28;20037;-69
2022/10/24 05:19:00;;;;;;;9.63;3.10;;;14.40;99.90;;;;;;5039022;28;20040;-70
2022/10/24 05:21:28;;;;;;;12.35;2.65;;;14.40;99.90;;;;;;5033454;28;20088;-69
2022/10/24 05:23:55;;;;;;;8.10;2.65;;;14.40;99.90;;;;;;5042682;28;20052;-69
2022/10/24 05:26:22;;;;;;;7.72;2.75;;;14.40;99.90;;;;;;5029144;28;20045;-69
2022/10/24 05:28:49;;;;;;;7.32;2.60;;;14.50;99.90;;;;;;5044110;28;20045;-69
2022/10/24 05:31:19;;;;;;;8.35;2.40;;;14.50;99.90;;;;;;5034979;28;20041;-69
2022/10/24 05:33:46;;;;;;;10.00;3.35;;;14.40;99.90;;;;;;5044596;28;20052;-69
2022/10/24 05:36:13;;;;;;;7.38;3.03;;;14.40;99.90;;;;;;5039644;28;20042;-69
2022/10/24 05:38:41;;;;;;;6.93;3.10;;;14.50;99.90;;;;;;5028630;28;20061;-70
2022/10/24 05:41:08;;;;;;;7.85;2.70;;;14.50;99.90;;;;;;5028309;28;20041;-70
2022/10/24 05:43:35;;;;;;;9.52;3.08;;;14.50;99.90;;;;;;5029805;28;20042;-69
2022/10/24 05:46:03;;;;;;;8.15;3.10;;;14.50;99.90;;;;;;5068050;28;20143;-69
2022/10/24 05:48:30;;;;;;;9.25;3.60;;;14.50;99.90;;;;;;5032801;28;20046;-69
2022/10/24 05:50:58;;;;;;;7.97;2.72;;;14.50;99.90;;;;;;5044586;28;20041;-68
2022/10/24 05:53:26;;;;;;;8.80;2.90;;;14.50;99.90;;;;;;5035923;28;20528;-69
2022/10/24 05:55:53;;;;;;;9.45;3.00;;;14.50;99.90;;;;;;5040959;28;20056;-70
2022/10/24 05:58:21;;;;;;;8.27;2.88;;;14.60;99.90;;;;;;5054567;28;20509;-69
2022/10/24 06:00:49;;;;;;;10.65;2.45;;;14.60;99.90;;;;;;5039134;28;20057;-69
2022/10/24 06:03:21;;;;;;;8.15;3.03;;;14.60;99.90;;;;;;5049546;28;20147;-68
2022/10/24 06:05:49;;;;;;;9.55;2.58;;;14.60;99.90;;;;;;5047778;28;20044;-69
2022/10/24 06:08:17;;;;;;;4.97;2.58;;;14.60;99.90;;;;;;5056382;28;20127;-69
2022/10/24 06:10:49;;;;;;;14.98;2.85;;;14.70;99.90;;;;;;5050259;28;20068;-70
2022/10/24 06:13:17;;;;;;;14.02;5.07;;;14.60;99.90;;;;;;5039711;28;20049;-71
2022/10/24 06:15:44;;;;;;;10.35;3.53;;;14.70;99.90;;;;;;5049966;28;20041;-69
2022/10/24 06:18:12;;;;;;;10.40;2.90;;;14.70;99.90;;;;;;5040404;28;20040;-71
2022/10/24 06:20:39;;;;;;;8.25;3.20;;;14.70;99.90;;;;;;5036827;28;21572;-71
2022/10/24 06:23:06;;;;;;;7.93;2.85;;;14.70;99.90;;;;;;5045885;28;20056;-73
2022/10/24 06:25:34;;;;;;;9.48;3.60;;;14.80;99.90;;;;;;5053622;28;20048;-72
2022/10/24 06:28:01;;;;;;;10.15;3.30;;;14.90;99.90;;;;;;5038024;28;20040;-70
2022/10/24 06:30:29;;;;;;;9.57;3.10;;;14.90;99.90;;;;;;5063229;28;20462;-72
2022/10/24 06:32:56;;;;;;;12.50;3.75;;;15.00;99.90;;;;;;5032353;28;20057;-74
2022/10/24 06:35:24;;;;;;;11.20;3.83;;;15.10;99.90;;;;;;5047099;28;20516;-71
2022/10/24 06:37:51;;;;;;;12.13;3.20;;;15.10;99.90;;;;;;5032758;28;20362;-72
2022/10/24 06:40:19;;;;;;;11.00;3.20;;;15.10;99.90;;;;;;5038397;28;20125;-71
2022/10/24 06:42:46;;;;;;;6.68;3.20;;;15.20;99.90;;;;;;5032147;28;20041;-72
2022/10/24 06:45:14;;;;;;;10.05;3.00;;;15.20;99.90;;;;;;5048133;28;20040;-72
2022/10/24 06:47:42;;;;;;;12.45;3.63;;;15.30;99.90;;;;;;5053978;28;20106;-73
2022/10/24 06:50:09;;;;;;;11.23;3.08;;;15.40;99.90;;;;;;5038711;28;20399;-71
2022/10/24 06:52:37;;;;;;;15.35;3.60;;;15.40;99.90;;;;;;5041074;28;20045;-70
2022/10/24 06:55:05;;;;;;;7.68;3.05;;;15.50;99.90;;;;;;5039988;28;20041;-71
2022/10/24 06:57:32;;;;;;;12.20;3.42;;;15.50;99.90;;;;;;5042181;28;20047;-71
2022/10/24 06:59:59;;;;;;;14.57;3.35;;;15.60;99.90;;;;;;5045531;28;20384;-72
2022/10/24 07:02:27;;;;;;;10.25;2.83;;;15.60;99.90;;;;;;5035003;28;20045;-72
2022/10/24 07:04:56;;;;;;;9.27;2.80;;;15.70;99.90;;;;;;5037738;28;20059;-71
2022/10/24 07:07:24;;;;;;;10.43;3.60;;;15.80;99.90;;;;;;5031419;28;20045;-71
2022/10/24 07:09:56;;;;;;;10.13;4.28;;;15.90;99.90;;;;;;5050980;28;20147;-73
2022/10/24 07:12:24;;;;;;;9.63;3.65;;;15.90;99.90;;;;;;5044631;28;20049;-73
2022/10/24 07:14:52;;;;;;;8.85;2.83;;;16.10;99.90;;;;;;5047195;28;20044;-72
2022/10/24 07:17:19;;;;;;;9.45;3.00;;;16.10;99.90;;;;;;5045497;28;20040;-73
2022/10/24 07:19:54;;;;;;;11.52;3.50;;;16.20;99.90;;;;;;5033937;28;20077;-72
2022/10/24 07:22:22;;;;;;;9.38;3.13;;;16.10;99.90;;;;;;5050199;28;20503;-73
2022/10/24 07:24:55;;;;;;;20.23;3.88;;;16.20;99.90;;;;;;5037349;28;20135;-75
2022/10/24 07:27:23;;;;;;;12.73;3.35;;;16.20;99.90;;;;;;5036246;28;20462;-73
2022/10/24 07:29:50;;;;;;;12.07;3.38;;;16.20;99.90;;;;;;5051615;28;20045;-72
2022/10/24 07:32:18;;;;;;;15.00;3.10;;;16.30;99.90;;;;;;5034001;28;20061;-72
2022/10/24 07:34:46;;;;;;;13.57;3.10;;;16.20;99.90;;;;;;5038315;28;20051;-71
2022/10/24 07:37:15;;;;;;;18.23;4.03;;;16.20;99.90;;;;;;5039475;28;20531;-68
2022/10/24 07:39:45;;;;;;;14.00;3.53;;;15.90;99.90;;;;;;5048180;28;20048;-69
2022/10/24 07:42:13;;;;;;;7.88;3.28;;;15.20;99.90;;;;;;5044852;28;20041;-67
2022/10/24 07:44:41;;;;;;;11.13;3.55;;;14.60;99.90;;;;;;5036576;28;20044;-67
2022/10/24 07:47:08;;;;;;;10.57;2.90;;;14.30;99.90;;;;;;5043565;28;20068;-66
2022/10/24 07:49:37;;;;;;;7.85;2.70;;;14.10;99.90;;;;;;5046985;28;20069;-68
2022/10/24 07:52:04;;;;;;;7.70;2.70;;;13.90;99.90;;;;;;5059090;28;20045;-68
2022/10/24 07:54:32;;;;;;;16.95;3.13;;;13.90;99.90;;;;;;5047242;28;20045;-68
2022/10/24 07:57:04;;;;;;;7.60;2.50;;;13.80;99.90;;;;;;5037513;28;20504;-69
2022/10/24 07:59:31;;;;;;;8.98;2.80;;;13.80;99.90;;;;;;5042010;28;20090;-68
2022/10/24 08:02:15;;;;;;;12.55;2.75;;;13.90;99.90;;;;;;5035339;28;20041;-68
2022/10/24 08:04:43;;;;;;;9.32;2.78;;;14.00;99.90;;;;;;5043598;28;20136;-69
2022/10/24 08:07:14;;;;;;;13.43;3.20;;;14.00;99.90;;;;;;5048282;28;20048;-69
2022/10/24 08:09:44;;;;;;;14.32;4.15;;;14.00;99.90;;;;;;5048503;28;20053;-69
2022/10/24 08:12:12;;;;;;;10.00;3.38;;;14.10;99.90;;;;;;5045557;28;20125;-68
2022/10/24 08:14:40;;;;;;;9.02;3.22;;;14.10;99.90;;;;;;5041966;28;20495;-68
2022/10/24 08:17:08;;;;;;;8.52;3.17;;;14.10;99.90;;;;;;5036505;28;20533;-69
2022/10/24 08:19:35;;;;;;;10.38;3.50;;;14.10;99.90;;;;;;5044699;28;20036;-69
2022/10/24 08:22:03;;;;;;;8.88;4.03;;;14.10;99.90;;;;;;5069486;28;20079;-69
2022/10/24 08:24:30;;;;;;;7.43;3.40;;;14.20;99.90;;;;;;5058145;28;20475;-69
2022/10/24 08:26:58;;;;;;;9.60;3.70;;;14.20;99.90;;;;;;5044155;28;20518;-69
2022/10/24 08:29:25;;;;;;;12.68;4.65;;;14.30;99.90;;;;;;5035935;28;20042;-70
2022/10/24 08:31:54;;;;;;;11.60;4.38;;;14.30;99.90;;;;;;5063884;28;20053;-69
2022/10/24 08:34:22;;;;;;;13.15;4.00;;;14.30;99.90;;;;;;5048214;28;20059;-69
2022/10/24 08:36:50;;;;;;;13.85;3.90;;;14.40;99.90;;;;;;5039309;28;20071;-69
2022/10/24 08:39:17;;;;;;;12.40;4.18;;;14.40;99.90;;;;;;5023884;28;20611;-69
2022/10/24 08:41:54;;;;;;;16.25;4.13;;;14.40;99.90;;;;;;5035118;28;20034;-68
2022/10/24 08:44:41;;;;;;;10.40;4.00;;;14.50;99.90;;;;;;5047452;28;20029;-68
2022/10/24 08:47:24;;;;;;;12.07;3.70;;;14.50;99.90;;;;;;5039092;28;20103;-68
2022/10/24 08:50:16;;;;;;;11.90;4.32;;;14.60;99.90;;;;;;5060004;28;20042;-67
2022/10/24 08:52:47;;;;;;;9.60;2.95;;;14.60;99.90;;;;;;5045852;28;20091;-67
2022/10/24 08:55:30;;;;;;;10.07;3.25;;;14.60;99.90;;;;;;5047846;28;20276;-67
2022/10/24 08:58:34;;;;;;;10.63;3.47;;;14.80;99.90;;;;;;5048588;28;20392;-66
2022/10/24 09:01:07;;;;;;;11.45;3.38;;;14.90;99.90;;;;;;5043760;28;20140;-67
2022/10/24 09:03:44;;;;;;;11.10;3.05;;;14.90;99.90;;;;;;5043632;28;20428;-67
2022/10/24 09:06:30;;;;;;;10.38;3.33;;;15.00;99.90;;;;;;5054388;28;20053;-69
2022/10/24 09:09:10;;;;;;;8.13;3.30;;;15.10;99.90;;;;;;5039053;28;20057;-68
2022/10/24 09:12:01;;;;;;;7.47;2.97;;;15.20;99.90;;;;;;5045768;28;20041;-68
2022/10/24 09:14:36;;;;;;;10.60;3.17;;;15.30;99.90;;;;;;5028682;28;20029;-67
2022/10/24 09:17:21;;;;;;;9.52;2.88;;;15.30;99.90;;;;;;5033807;28;20063;-68
2022/10/24 09:19:55;;;;;;;7.25;3.00;;;15.40;99.90;;;;;;5049155;28;20033;-68
2022/10/24 09:22:26;;;;;;;6.80;2.40;;;15.40;99.90;;;;;;5043058;28;20614;-69
2022/10/24 09:25:07;;;;;;;8.40;2.85;;;15.40;99.90;;;;;;5047481;28;20162;-69
2022/10/24 09:27:37;;;;;;;10.02;2.70;;;15.40;99.90;;;;;;5046390;28;20080;-69
2022/10/24 09:30:10;;;;;;;10.38;2.78;;;15.30;99.90;;;;;;5044976;28;20064;-69
2022/10/24 09:32:37;;;;;;;8.05;2.85;;;15.30;99.90;;;;;;5049890;28;20124;-69
2022/10/24 09:35:19;;;;;;;7.80;2.45;;;15.30;99.90;;;;;;5047085;28;20454;-68
2022/10/24 09:38:10;;;;;;;5.93;2.67;;;15.20;99.90;;;;;;5049372;28;20033;-69
2022/10/24 09:40:37;;;;;;;8.25;2.47;;;15.20;99.90;;;;;;5052142;28;20455;-68
2022/10/24 09:43:22;;;;;;;6.45;2.88;;;15.30;99.90;;;;;;5046079;28;20063;-69
2022/10/24 09:46:07;;;;;;;10.35;3.22;;;15.30;99.90;;;;;;5041624;28;20053;-69
2022/10/24 09:48:45;;;;;;;8.00;3.05;;;15.30;99.90;;;;;;5032851;28;20045;-68
2022/10/24 09:51:32;;;;;;;14.30;6.32;;;15.20;99.90;;;;;;5047682;28;20136;-69
2022/10/24 09:54:28;;;;;;;9.57;3.58;;;15.20;99.90;;;;;;5028479;28;20073;-68
2022/10/24 09:56:58;;;;;;;7.03;2.60;;;15.30;99.90;;;;;;5027903;28;20053;-69
2022/10/24 09:59:31;;;;;;;10.52;3.10;;;15.30;99.90;;;;;;5041819;28;20051;-69
2022/10/24 10:02:23;;;;;;;9.50;2.90;;;15.40;99.90;;;;;;5046942;28;20048;-69
2022/10/24 10:05:02;;;;;;;12.00;3.38;;;15.50;99.90;;;;;;5035895;28;20041;-69
2022/10/24 10:07:34;;;;;;;8.73;3.85;;;15.50;99.90;;;;;;5038929;28;20479;-69
2022/10/24 10:10:05;;;;;;;11.27;3.58;;;15.60;99.90;;;;;;5038847;28;20068;-69
2022/10/24 10:12:36;;;;;;;9.43;3.42;;;15.60;99.90;;;;;;5038640;28;20037;-69
2022/10/24 10:15:34;;;;;;;6.50;3.10;;;15.70;99.90;;;;;;5040864;28;20037;-69
2022/10/24 10:18:32;;;;;;;8.90;3.63;;;15.70;99.90;;;;;;5044387;28;20495;-68
2022/10/24 10:21:16;;;;;;;13.40;4.30;;;15.80;99.90;;;;;;5049918;28;20051;-68
2022/10/24 10:23:45;;;;;;;11.18;3.85;;;15.80;99.90;;;;;;5045320;28;20041;-69
2022/10/24 10:26:40;;;;;;;10.52;4.07;;;15.80;99.90;;;;;;5042426;28;20063;-68
2022/10/24 10:29:17;;;;;;;10.20;3.90;;;15.90;99.90;;;;;;5044740;28;20063;-68
2022/10/24 10:31:47;;;;;;;13.90;4.78;;;15.90;99.90;;;;;;5047686;28;20049;-69
2022/10/24 10:34:38;;;;;;;11.88;5.22;;;15.90;99.90;;;;;;5046191;28;20045;-69
2022/10/24 10:37:29;;;;;;;10.75;4.93;;;15.90;99.90;;;;;;5029409;28;20441;-68
2022/10/24 10:40:30;;;;;;;16.75;5.30;;;16.00;99.90;;;;;;5032337;28;20080;-68
2022/10/24 10:42:57;;;;;;;10.82;4.28;;;16.00;99.90;;;;;;5074647;28;20087;-69
2022/10/24 10:45:34;;;;;;;8.32;3.35;;;16.10;99.90;;;;;;5037706;28;20045;-68
2022/10/24 10:48:10;;;;;;;8.13;3.65;;;16.20;99.90;;;;;;5024008;28;20041;-69
2022/10/24 10:50:43;;;;;;;16.50;4.40;;;16.20;99.90;;;;;;5045048;28;20124;-69
2022/10/24 10:53:35;;;;;;;14.93;5.10;;;16.30;99.90;;;;;;5045341;28;20054;-69
2022/10/24 10:56:22;;;;;;;10.70;4.07;;;16.30;99.90;;;;;;5044338;28;20041;-68
2022/10/24 10:59:14;;;;;;;6.88;3.53;;;16.40;99.90;;;;;;5035404;28;20037;-70
2022/10/24 11:01:52;;;;;;;11.02;3.17;;;16.50;99.90;;;;;;5031515;28;20126;-69
2022/10/24 11:04:48;;;;;;;9.48;3.25;;;16.50;99.90;;;;;;5043026;28;20159;-69
2022/10/24 11:07:27;;;;;;;12.18;3.50;;;16.60;99.90;;;;;;5040604;28;20041;-68
2022/10/24 11:10:08;;;;;;;7.97;3.38;;;16.60;99.90;;;;;;5040953;28;20072;-69
2022/10/24 11:12:38;;;;;;;11.27;3.67;;;16.60;99.90;;;;;;5035137;28;20118;-68
2022/10/24 11:15:08;;;;;;;8.65;3.78;;;16.60;99.90;;;;;;5014701;28;20111;-69
2022/10/24 11:17:53;;;;;;;8.90;3.38;;;16.60;99.90;;;;;;5039748;28;20045;-68
2022/10/24 11:20:42;;;;;;;11.63;3.95;;;16.60;99.90;;;;;;5052905;28;20041;-69
2022/10/24 11:23:23;;;;;;;12.73;4.05;;;16.60;99.90;;;;;;5048748;28;20055;-68
2022/10/24 11:26:01;;;;;;;12.30;3.72;;;16.60;99.90;;;;;;5066569;28;20041;-69
2022/10/24 11:28:38;;;;;;;10.05;3.40;;;16.60;99.90;;;;;;5048081;28;20053;-68
2022/10/24 11:31:22;;;;;;;10.80;3.95;;;16.60;99.90;;;;;;5058524;28;20045;-67
2022/10/24 11:34:02;;;;;;;8.63;3.67;;;16.50;99.90;;;;;;5042080;28;20051;-68
2022/10/24 11:36:58;;;;;;;9.85;3.70;;;16.50;99.90;;;;;;5020527;28;20052;-68
2022/10/24 11:39:32;;;;;;;8.18;3.22;;;16.60;99.90;;;;;;5071670;28;20099;-69
2022/10/24 11:42:02;;;;;;;8.82;3.60;;;16.70;99.90;;;;;;5043019;28;20041;-68
2022/10/24 11:44:41;;;;;;;9.77;3.00;;;16.70;99.90;;;;;;5062484;28;20094;-67
2022/10/24 11:47:24;;;;;;;10.95;3.60;;;16.70;99.90;;;;;;5045073;28;20535;-67
2022/10/24 11:50:03;;;;;;;11.85;3.53;;;16.70;99.90;;;;;;5047336;28;20123;-69
2022/10/24 11:52:37;;;;;;;7.22;3.10;;;16.70;99.90;;;;;;5048287;28;20068;-69
2022/10/24 11:55:20;;;;;;;11.18;3.22;;;16.80;99.90;;;;;;5048263;28;20049;-70
2022/10/24 11:57:52;;;;;;;12.13;3.08;;;16.80;99.90;;;;;;5050933;28;20503;-69
2022/10/24 12:00:26;;;;;;;10.32;3.00;;;16.70;99.90;;;;;;5037128;28;20092;-69
2022/10/24 12:03:07;;;;;;;11.05;3.53;;;16.70;99.90;;;;;;5045308;28;20468;-71
2022/10/24 12:06:10;;;;;;;9.55;3.28;;;16.70;99.90;;;;;;5047321;28;20511;-70
2022/10/24 12:08:58;;;;;;;7.18;3.00;;;16.70;99.90;;;;;;5047970;28;20067;-68
2022/10/24 12:11:57;;;;;;;12.88;3.65;;;16.70;99.90;;;;;;5044071;28;20083;-68
2022/10/24 12:14:41;;;;;;;13.45;3.55;;;16.80;99.90;;;;;;5050097;28;20049;-69
2022/10/24 12:17:15;;;;;;;11.50;3.38;;;16.90;99.90;;;;;;5050319;28;20048;-69
2022/10/24 12:19:44;;;;;;;10.77;3.55;;;17.00;99.90;;;;;;5046219;28;20045;-69
2022/10/24 12:22:22;;;;;;;10.30;2.90;;;16.90;99.90;;;;;;5050034;28;20037;-69
2022/10/24 12:25:21;;;;;;;9.77;3.10;;;16.90;99.90;;;;;;5046661;28;20041;-69
2022/10/24 12:27:57;;;;;;;8.30;3.08;;;16.90;99.90;;;;;;5078523;28;20151;-69
2022/10/24 12:30:27;;;;;;;10.95;3.10;;;16.90;99.90;;;;;;5048362;28;20087;-68
2022/10/24 12:32:54;;;;;;;11.30;3.17;;;17.00;99.90;;;;;;5042967;28;20044;-69
2022/10/24 12:35:44;;;;;;;11.07;3.08;;;17.00;99.90;;;;;;5028734;28;20050;-70
2022/10/24 12:38:38;;;;;;;10.00;3.13;;;17.00;99.90;;;;;;5032388;28;20033;-69
2022/10/24 12:41:25;;;;;;;6.97;2.75;;;17.10;99.90;;;;;;5032084;28;20044;-69
2022/10/24 12:44:22;;;;;;;10.77;2.97;;;17.10;99.90;;;;;;5045070;28;20041;-70
2022/10/24 12:46:49;;;;;;;11.65;3.88;;;17.20;99.90;;;;;;5034176;28;20059;-69
2022/10/24 12:49:28;;;;;;;14.77;3.60;;;17.10;99.90;;;;;;5043328;28;20490;-71
2022/10/24 12:51:57;;;;;;;11.48;3.50;;;17.10;99.90;;;;;;5043305;28;20052;-69
2022/10/24 12:54:44;;;;;;;7.25;3.30;;;17.00;99.90;;;;;;5047557;28;20491;-67
2022/10/24 12:57:12;;;;;;;12.75;3.10;;;17.00;99.90;;;;;;5043121;28;20045;-68
2022/10/24 12:59:51;;;;;;;8.57;2.85;;;17.00;99.90;;;;;;5055858;28;20494;-68
2022/10/24 13:02:18;;;;;;;13.95;3.58;;;16.90;99.90;;;;;;5031019;28;20048;-69
2022/10/24 13:05:05;;;;;;;7.60;3.22;;;16.90;99.90;;;;;;5044436;28;20051;-68
2022/10/24 13:07:53;;;;;;;8.02;3.53;;;16.90;99.90;;;;;;5034131;28;20049;-69
2022/10/24 13:10:27;;;;;;;10.13;3.25;;;16.90;99.90;;;;;;5040103;28;20045;-68
2022/10/24 13:13:01;;;;;;;11.80;2.90;;;16.90;99.90;;;;;;5045512;28;20064;-67
2022/10/24 13:15:36;;;;;;;12.35;3.33;;;16.80;99.90;;;;;;5030848;28;20095;-68